Time;durP1;ratioP1;P1;durP2;ratioP2;P2;SDS_P1;SDS_P2;PMS_P1;PMS_P2;Temp;Humidity;BMP_temperature;BMP_pressure;BME280_temperature;BME280_humidity;BME280_pressure;Samples;Min_cycle;Max_cycle;Signal;HPM_P1;HPM_P2
2021/12/23 00:02:05;;;;;;;57.22;22.10;;;0.90;99.90;;;-0.86;100.00;101253.81;4932393;28;21947;-79
2021/12/23 00:04:39;;;;;;;52.47;21.10;;;0.80;99.90;;;-0.92;100.00;101249.44;4910071;28;20665;-79
2021/12/23 00:07:05;;;;;;;49.13;21.88;;;0.80;99.90;;;-0.91;100.00;101253.72;4956898;23;20170;-79
2021/12/23 00:10:01;;;;;;;59.25;21.80;;;0.80;99.90;;;-0.94;100.00;101247.69;4960032;28;20036;-79
2021/12/23 00:12:19;;;;;;;47.60;21.02;;;0.80;99.90;;;-0.96;100.00;101257.16;4965175;28;20036;-79
2021/12/23 00:14:46;;;;;;;52.25;21.77;;;0.80;99.90;;;-0.97;100.00;101251.13;4968713;28;20030;-78
2021/12/23 00:17:27;;;;;;;53.25;21.67;;;0.80;99.90;;;-0.99;100.00;101246.75;4927497;28;20025;-79
2021/12/23 00:23:24;;;;;;;52.58;21.08;;;0.80;99.90;;;-0.99;100.00;101242.47;4947933;28;20441;-78
2021/12/23 00:25:30;;;;;;;54.42;21.50;;;0.70;99.90;;;-1.04;100.00;101224.34;4937606;28;20045;-79
2021/12/23 00:27:56;;;;;;;49.72;22.55;;;0.70;99.90;;;-1.10;100.00;101229.47;4942177;28;20048;-79
2021/12/23 00:30:29;;;;;;;48.67;21.30;;;0.70;99.90;;;-1.10;100.00;101233.75;4959025;28;20029;-79
2021/12/23 00:32:56;;;;;;;55.58;23.10;;;0.60;99.90;;;-1.11;100.00;101232.88;4939987;28;20036;-79
2021/12/23 00:35:23;;;;;;;56.03;22.95;;;0.60;99.90;;;-1.14;100.00;101229.41;4928194;28;20037;-78
2021/12/23 00:37:59;;;;;;;50.22;21.52;;;0.60;99.90;;;-1.21;100.00;101225.03;4902027;28;20056;-78
2021/12/23 00:40:26;;;;;;;58.67;21.23;;;0.60;99.90;;;-1.26;100.00;101212.91;4965136;28;20033;-78
2021/12/23 00:42:52;;;;;;;52.00;21.58;;;0.50;99.90;;;-1.28;100.00;101208.59;4933643;28;20024;-78
2021/12/23 00:45:25;;;;;;;54.08;22.58;;;0.50;99.90;;;-1.30;100.00;101202.56;4947761;23;21402;-79
2021/12/23 00:47:51;;;;;;;46.88;21.35;;;0.40;99.90;;;-1.37;100.00;101200.78;4922094;28;20039;-79
2021/12/23 00:50:17;;;;;;;53.83;22.20;;;0.40;99.90;;;-1.43;100.00;101203.28;4932797;28;20038;-78
2021/12/23 00:52:43;;;;;;;45.42;20.83;;;0.30;99.90;;;-1.48;100.00;101198.94;4930806;28;20033;-78
2021/12/23 00:55:15;;;;;;;50.47;22.05;;;0.30;99.90;;;-1.54;100.00;101196.28;4926340;28;20026;-78
2021/12/23 00:57:41;;;;;;;55.33;23.83;;;0.20;99.90;;;-1.60;100.00;101192.78;4934021;28;20112;-78
2021/12/23 01:00:15;;;;;;;53.97;22.25;;;0.10;99.90;;;-1.68;100.00;101192.69;4931494;28;20039;-79
2021/12/23 01:02:46;;;;;;;57.78;23.33;;;0.10;99.90;;;-1.75;100.00;101193.47;4902388;28;20157;-78
2021/12/23 01:05:19;;;;;;;61.83;25.15;;;-0.10;99.90;;;-1.81;100.00;101190.81;4930656;22;21687;-78
2021/12/23 01:07:48;;;;;;;66.55;25.58;;;-0.10;99.90;;;-1.87;100.00;101184.72;4951149;28;20124;-78
2021/12/23 01:10:17;;;;;;;61.67;24.92;;;-0.10;99.90;;;-1.91;100.00;101179.53;4899337;28;20042;-78
2021/12/23 01:12:53;;;;;;;56.65;24.90;;;-0.20;99.90;;;-1.96;100.00;101176.03;4915340;28;20129;-78
2021/12/23 01:18:14;;;;;;;62.20;26.42;;;-0.30;99.90;;;-2.05;100.00;101166.47;4925840;28;21526;-78
2021/12/23 01:20:53;;;;;;;63.17;25.80;;;-0.30;99.90;;;-2.08;100.00;101166.41;4914337;28;20100;-78
2021/12/23 01:23:24;;;;;;;55.65;25.20;;;-0.30;99.90;;;-2.12;100.00;101164.63;4907047;28;20137;-78
2021/12/23 01:25:55;;;;;;;60.10;25.58;;;-0.30;99.90;;;-2.13;100.00;101163.78;4930747;23;20470;-78
2021/12/23 01:28:22;;;;;;;68.55;26.45;;;-0.40;99.90;;;-2.17;100.00;101155.97;4912784;28;20045;-77
2021/12/23 01:30:49;;;;;;;63.72;25.67;;;-0.40;99.90;;;-2.18;100.00;101152.53;4929493;28;20029;-78
2021/12/23 01:33:15;;;;;;;55.33;24.95;;;-0.40;99.90;;;-2.21;100.00;101151.63;4908749;28;20026;-77
2021/12/23 01:35:44;;;;;;;59.47;25.02;;;-0.40;99.90;;;-2.24;100.00;101155.03;4874143;28;20030;-78
2021/12/23 01:38:11;;;;;;;65.55;25.25;;;-0.40;99.90;;;-2.25;100.00;101152.44;4848589;28;20119;-77
2021/12/23 01:40:37;;;;;;;60.80;25.25;;;-0.50;99.90;;;-2.28;100.00;101148.13;4862725;28;20023;-77
2021/12/23 01:43:04;;;;;;;59.95;25.73;;;-0.50;99.90;;;-2.31;100.00;101146.38;4940261;28;20119;-77
2021/12/23 01:45:38;;;;;;;58.95;25.15;;;-0.50;99.90;;;-2.36;100.00;101155.72;4952103;23;20056;-78
2021/12/23 01:48:04;;;;;;;60.97;26.58;;;-0.50;99.90;;;-2.38;100.00;101159.16;4945555;28;20058;-77
2021/12/23 01:50:31;;;;;;;61.67;26.70;;;-0.50;99.90;;;-2.37;100.00;101154.03;4928985;28;20080;-78
2021/12/23 01:53:00;;;;;;;64.65;28.27;;;-0.50;99.90;;;-2.38;100.00;101152.28;4917373;28;20478;-78
2021/12/23 01:55:31;;;;;;;67.15;27.17;;;-0.50;99.90;;;-2.38;100.00;101147.13;4940348;28;20030;-78
2021/12/23 01:57:58;;;;;;;63.25;26.52;;;-0.50;99.90;;;-2.38;100.00;101135.94;4923454;28;20042;-77
2021/12/23 02:00:37;;;;;;;60.60;26.42;;;-0.60;99.90;;;-2.39;100.00;101129.91;4928850;28;20025;-78
2021/12/23 02:03:04;;;;;;;66.03;27.50;;;-0.60;99.90;;;-2.40;100.00;101125.59;4937119;28;20046;-77
2021/12/23 02:05:31;;;;;;;72.43;28.13;;;-0.60;99.90;;;-2.39;100.00;101123.91;4961899;28;20033;-78
2021/12/23 02:08:02;;;;;;;59.22;26.55;;;-0.60;99.90;;;-2.44;100.00;101107.47;4883536;28;20141;-78
2021/12/23 02:10:28;;;;;;;59.10;26.70;;;-0.60;99.90;;;-2.46;100.00;101107.50;4911463;28;20054;-77
2021/12/23 02:12:55;;;;;;;72.35;28.83;;;-0.60;99.90;;;-2.46;100.00;101094.59;4937445;28;20017;-77
2021/12/23 02:15:21;;;;;;;68.25;27.25;;;-0.70;99.90;;;-2.48;100.00;101085.97;4890802;28;20784;-78
2021/12/23 02:17:52;;;;;;;64.88;27.10;;;-0.70;99.90;;;-2.50;100.00;101096.25;4889108;28;20027;-78
2021/12/23 02:20:27;;;;;;;61.08;26.00;;;-0.70;99.90;;;-2.53;100.00;101087.59;4883600;28;20030;-77
2021/12/23 02:22:59;;;;;;;65.47;27.98;;;-0.70;99.90;;;-2.58;100.00;101072.06;4925082;28;20528;-78
2021/12/23 02:25:25;;;;;;;70.85;27.67;;;-0.70;99.90;;;-2.57;100.00;101075.50;4909287;28;20029;-79
2021/12/23 02:27:53;;;;;;;60.42;26.73;;;-0.70;99.90;;;-2.54;100.00;101073.00;4901740;28;20123;-79
2021/12/23 02:30:29;;;;;;;70.90;27.30;;;-0.70;99.90;;;-2.56;100.00;101062.66;4903304;28;21266;-78
2021/12/23 02:32:57;;;;;;;64.72;27.45;;;-0.70;99.90;;;-2.55;100.00;101060.94;4919084;28;20038;-78
2021/12/23 02:35:25;;;;;;;62.00;27.17;;;-0.70;99.90;;;-2.53;100.00;101069.56;4938903;28;20149;-77
2021/12/23 02:37:56;;;;;;;62.00;26.27;;;-0.70;99.90;;;-2.51;100.00;101067.84;5016558;28;20041;-78
2021/12/23 02:40:40;;;;;;;63.08;26.88;;;-0.70;99.90;;;-2.53;100.00;101064.41;4891022;28;20031;-78
2021/12/23 02:43:13;;;;;;;69.50;27.50;;;-0.80;99.90;;;-2.55;100.00;101050.63;4921806;28;20038;-79
2021/12/23 02:45:42;;;;;;;69.03;28.70;;;-0.80;99.90;;;-2.55;100.00;101050.63;4947648;23;20039;-78
2021/12/23 02:48:37;;;;;;;64.47;27.17;;;-0.70;99.90;;;-2.56;100.00;101044.59;4874694;28;20125;-78
2021/12/23 02:51:13;;;;;;;71.65;28.58;;;-0.80;99.90;;;-2.53;100.00;101038.63;4933670;28;20253;-79
2021/12/23 02:53:43;;;;;;;70.25;29.00;;;-0.80;99.90;;;-2.58;100.00;101048.00;4916410;28;20099;-78
2021/12/23 02:56:15;;;;;;;74.30;29.13;;;-0.80;99.90;;;-2.59;100.00;101054.00;4900089;28;20029;-78
2021/12/23 02:58:45;;;;;;;69.38;29.30;;;-0.80;99.90;;;-2.60;100.00;101041.97;4900126;28;20551;-78
2021/12/23 03:01:13;;;;;;;76.22;28.00;;;-0.80;99.90;;;-2.57;100.00;101036.84;4870998;28;20468;-78
2021/12/23 03:03:39;;;;;;;74.97;29.33;;;-0.80;99.90;;;-2.53;100.00;101028.31;4876001;28;20034;-79
2021/12/23 03:06:09;;;;;;;78.72;28.98;;;-0.80;99.90;;;-2.53;100.00;101023.16;4870670;28;20042;-79
2021/12/23 03:08:37;;;;;;;70.30;28.73;;;-0.80;99.90;;;-2.53;100.00;101024.03;4874976;28;20047;-78
2021/12/23 03:11:07;;;;;;;69.03;27.33;;;-0.80;99.90;;;-2.52;100.00;101009.41;4880193;28;20134;-79
2021/12/23 03:13:34;;;;;;;69.93;29.08;;;-0.70;99.90;;;-2.52;100.00;101001.69;4879125;28;20035;-79
2021/12/23 03:16:00;;;;;;;74.85;30.33;;;-0.70;99.90;;;-2.51;100.00;101003.41;4893294;28;20134;-79
2021/12/23 03:18:32;;;;;;;70.47;28.42;;;-0.70;99.90;;;-2.51;100.00;100993.09;4899288;28;20074;-79
2021/12/23 03:20:59;;;;;;;76.07;29.45;;;-0.70;99.90;;;-2.51;100.00;100991.38;4879369;28;20490;-78
2021/12/23 03:23:26;;;;;;;62.92;26.58;;;-0.70;99.90;;;-2.47;100.00;100981.97;4887212;28;20033;-78
2021/12/23 03:25:52;;;;;;;66.30;26.75;;;-0.70;99.90;;;-2.44;100.00;100989.75;4846414;28;20220;-78
2021/12/23 03:28:26;;;;;;;66.45;27.73;;;-0.70;99.90;;;-2.48;100.00;100982.81;4890336;28;20050;-79
2021/12/23 03:30:52;;;;;;;68.88;28.10;;;-0.70;99.90;;;-2.48;100.00;100982.81;4913955;28;20030;-78
2021/12/23 03:33:19;;;;;;;65.35;25.77;;;-0.70;99.90;;;-2.49;100.00;100978.50;4919715;28;20069;-78
2021/12/23 03:35:46;;;;;;;68.93;27.15;;;-0.70;99.90;;;-2.50;100.00;100980.22;4889600;28;20048;-78
2021/12/23 03:38:16;;;;;;;70.05;29.60;;;-0.70;99.90;;;-2.53;100.00;100967.31;4890443;28;20069;-78
2021/12/23 03:40:44;;;;;;;68.60;28.10;;;-0.70;99.90;;;-2.53;100.00;100966.41;4897468;28;20039;-78
2021/12/23 03:43:12;;;;;;;65.22;27.58;;;-0.70;99.90;;;-2.55;100.00;100962.97;4883095;28;20035;-78
2021/12/23 03:45:45;;;;;;;64.18;27.05;;;-0.70;99.90;;;-2.51;100.00;100960.41;4923607;28;20039;-79
2021/12/23 03:48:13;;;;;;;72.72;27.48;;;-0.70;99.90;;;-2.49;100.00;100956.16;4901998;28;20676;-78
2021/12/23 03:50:39;;;;;;;65.45;28.83;;;-0.70;99.90;;;-2.48;100.00;100954.47;4890230;28;20057;-79
2021/12/23 03:53:05;;;;;;;69.68;27.73;;;-0.70;99.90;;;-2.46;100.00;100950.19;4923358;28;20122;-78
2021/12/23 03:55:37;;;;;;;68.78;28.45;;;-0.70;99.90;;;-2.43;100.00;100949.34;4901512;28;20030;-78
2021/12/23 03:58:04;;;;;;;76.28;27.80;;;-0.70;99.90;;;-2.44;100.00;100945.91;4902874;28;20030;-78
2021/12/23 04:00:30;;;;;;;69.07;27.83;;;-0.70;99.90;;;-2.44;100.00;100943.31;4922626;28;20051;-79
2021/12/23 04:02:56;;;;;;;73.20;28.38;;;-0.60;99.90;;;-2.44;100.00;100929.53;4853814;28;21241;-78
2021/12/23 04:05:30;;;;;;;66.10;28.98;;;-0.60;99.90;;;-2.42;100.00;100928.69;4883358;28;20038;-78
2021/12/23 04:07:56;;;;;;;72.60;28.00;;;-0.70;99.90;;;-2.40;100.00;100921.00;4893334;28;20103;-80
2021/12/23 04:10:22;;;;;;;73.90;28.33;;;-0.60;99.90;;;-2.41;100.00;100919.28;4874049;28;20162;-78
2021/12/23 04:12:53;;;;;;;73.63;28.75;;;-0.60;99.90;;;-2.46;100.00;100911.50;4920155;28;20129;-79
2021/12/23 04:15:22;;;;;;;68.03;28.48;;;-0.60;99.90;;;-2.41;100.00;100911.53;4884208;28;20030;-78
2021/12/23 04:17:49;;;;;;;69.40;27.25;;;-0.60;99.90;;;-2.42;100.00;100905.50;4865759;28;20046;-79
2021/12/23 04:20:19;;;;;;;65.30;27.10;;;-0.60;99.90;;;-2.43;100.00;100890.03;4881175;28;20041;-78
2021/12/23 04:22:52;;;;;;;63.25;27.10;;;-0.80;99.90;;;-2.43;100.00;100885.72;4854128;28;20093;-78
2021/12/23 04:25:30;;;;;;;66.45;28.30;;;-0.60;99.90;;;-2.49;100.00;100883.94;4849946;28;20038;-78
2021/12/23 04:28:05;;;;;;;67.93;27.27;;;-0.60;99.90;;;-2.48;100.00;100877.09;4892539;28;20522;-79
2021/12/23 04:30:34;;;;;;;67.80;27.40;;;-0.60;99.90;;;-2.50;100.00;100877.06;4903003;28;20114;-79
2021/12/23 04:33:00;;;;;;;75.18;29.88;;;-0.60;99.90;;;-2.44;100.00;100871.13;4882192;28;20036;-78
2021/12/23 04:35:26;;;;;;;78.22;28.77;;;-0.60;99.90;;;-2.51;100.00;100864.16;4865182;28;20023;-79
2021/12/23 04:37:52;;;;;;;73.22;28.85;;;-0.60;99.90;;;-2.51;100.00;100862.44;4921421;28;20039;-79
2021/12/23 04:40:24;;;;;;;76.20;30.25;;;-0.60;99.90;;;-2.51;100.00;100861.59;4906347;28;20035;-79
2021/12/23 04:42:51;;;;;;;72.50;29.73;;;-0.70;99.90;;;-2.55;100.00;100855.56;4870723;28;20030;-79
2021/12/23 04:45:17;;;;;;;73.55;30.55;;;-0.70;99.90;;;-2.51;100.00;100851.28;4877228;28;20047;-79
2021/12/23 04:47:43;;;;;;;73.97;30.52;;;-0.70;99.90;;;-2.49;100.00;100850.44;4836773;28;20069;-79
2021/12/23 04:50:16;;;;;;;74.53;30.60;;;-0.70;99.90;;;-2.47;100.00;100848.72;4852314;28;20034;-79
2021/12/23 04:52:45;;;;;;;79.80;30.92;;;-0.60;99.90;;;-2.45;100.00;100847.91;4920604;28;20381;-79
2021/12/23 04:55:17;;;;;;;84.75;32.20;;;-0.60;99.90;;;-2.46;100.00;100834.16;4883195;28;20023;-79
2021/12/23 04:57:44;;;;;;;74.35;30.25;;;-0.60;99.90;;;-2.48;100.00;100828.09;4857619;28;20039;-80
2021/12/23 05:00:24;;;;;;;84.38;31.52;;;-0.60;99.90;;;-2.49;100.00;100821.22;4886503;28;20018;-79
2021/12/23 05:02:50;;;;;;;76.45;29.85;;;-0.60;99.90;;;-2.51;100.00;100825.47;4882324;28;20023;-79
2021/12/23 05:05:17;;;;;;;81.15;30.52;;;-0.70;99.90;;;-2.49;100.00;100818.63;4854252;28;20046;-79
2021/12/23 05:07:44;;;;;;;74.03;29.58;;;-0.60;99.90;;;-2.52;100.00;100805.72;4866538;28;20199;-79
2021/12/23 05:10:20;;;;;;;63.63;28.25;;;-0.60;99.90;;;-2.56;100.00;100798.81;4883052;28;20058;-79
2021/12/23 05:12:47;;;;;;;72.90;28.73;;;-0.60;99.90;;;-2.61;100.00;100797.88;4920048;28;20181;-79
2021/12/23 05:15:22;;;;;;;71.28;29.95;;;-0.70;99.90;;;-2.61;100.00;100798.78;4879309;28;21082;-80
2021/12/23 05:17:49;;;;;;;74.85;29.05;;;-0.70;99.90;;;-2.57;100.00;100800.53;4893354;28;20031;-79
2021/12/23 05:20:18;;;;;;;70.00;30.45;;;-0.70;99.90;;;-2.56;100.00;100799.66;4883024;28;20035;-79
2021/12/23 05:22:48;;;;;;;73.88;30.23;;;-0.70;99.90;;;-2.50;100.00;100791.13;4894110;28;20046;-79
2021/12/23 05:25:15;;;;;;;83.55;31.15;;;-0.70;99.90;;;-2.52;100.00;100783.38;4879463;28;20039;-79
2021/12/23 05:27:41;;;;;;;73.22;28.95;;;-0.70;99.90;;;-2.49;100.00;100782.53;4877711;28;20518;-79
2021/12/23 05:30:22;;;;;;;80.82;31.15;;;-0.70;99.90;;;-2.49;100.00;100785.97;4882116;28;20018;-78
2021/12/23 05:32:48;;;;;;;75.70;30.13;;;-0.70;99.90;;;-2.50;100.00;100781.69;4896018;28;20027;-79
2021/12/23 05:35:23;;;;;;;78.82;29.98;;;-0.70;99.90;;;-2.49;100.00;100785.09;4894379;28;20022;-78
2021/12/23 05:37:50;;;;;;;71.73;28.90;;;-0.70;99.90;;;-2.53;100.00;100776.50;4898039;28;20158;-79
2021/12/23 05:40:26;;;;;;;73.78;30.67;;;-0.70;99.90;;;-2.53;100.00;100770.47;4837287;28;20286;-79
2021/12/23 05:42:53;;;;;;;72.43;29.70;;;-0.70;99.90;;;-2.54;100.00;100763.59;4860910;28;20191;-78
2021/12/23 05:45:19;;;;;;;73.85;28.60;;;-0.70;99.90;;;-2.53;100.00;100768.78;4870874;28;20749;-78
2021/12/23 05:47:52;;;;;;;76.03;30.17;;;-0.70;99.90;;;-2.53;100.00;100760.16;4880292;28;20039;-79
2021/12/23 05:50:20;;;;;;;73.15;29.52;;;-0.70;99.90;;;-2.48;100.00;100755.91;4880510;28;20022;-78
2021/12/23 05:52:46;;;;;;;73.18;27.95;;;-0.60;99.90;;;-2.44;100.00;100751.63;4904831;28;20026;-78
2021/12/23 05:55:20;;;;;;;72.45;29.42;;;-0.70;99.90;;;-2.42;100.00;100760.22;4913796;28;20034;-78
2021/12/23 05:57:46;;;;;;;76.63;29.13;;;-0.60;99.90;;;-2.40;100.00;100756.81;4886084;28;20427;-78
2021/12/23 06:00:24;;;;;;;73.65;29.60;;;-0.60;99.90;;;-2.44;100.00;100755.09;4881845;28;20080;-79
2021/12/23 06:02:51;;;;;;;72.25;29.80;;;-0.60;99.90;;;-2.39;100.00;100753.38;4907434;28;20305;-79
2021/12/23 06:05:17;;;;;;;76.65;29.80;;;-0.50;99.90;;;-2.37;100.00;100749.09;4907274;28;20384;-78
2021/12/23 06:07:44;;;;;;;69.55;28.00;;;-0.50;99.90;;;-2.36;100.00;100729.31;4875119;28;20030;-79
2021/12/23 06:10:18;;;;;;;76.50;30.42;;;-0.60;99.90;;;-2.37;100.00;100736.22;4882666;28;20031;-79
2021/12/23 06:12:45;;;;;;;74.47;29.70;;;-0.50;99.90;;;-2.37;100.00;100731.06;4880409;28;20116;-79
2021/12/23 06:15:12;;;;;;;75.65;30.20;;;-0.50;99.90;;;-2.37;100.00;100720.72;4888888;28;20045;-79
2021/12/23 06:17:44;;;;;;;80.13;31.88;;;-0.50;99.90;;;-2.42;100.00;100721.53;4895140;28;20112;-79
2021/12/23 06:20:11;;;;;;;74.43;30.48;;;-0.50;99.90;;;-2.45;100.00;100709.50;4884467;28;20459;-79
2021/12/23 06:22:38;;;;;;;86.35;32.20;;;-0.50;99.90;;;-2.40;100.00;100692.34;4891470;28;20082;-79
2021/12/23 06:25:08;;;;;;;69.65;28.25;;;-0.50;99.90;;;-2.43;100.00;100686.31;4897366;28;20030;-79
2021/12/23 06:27:38;;;;;;;73.72;29.95;;;-0.50;99.90;;;-2.44;100.00;100684.56;4876248;28;20027;-79
2021/12/23 06:30:17;;;;;;;71.32;29.15;;;-0.50;99.90;;;-2.44;100.00;100689.72;4891508;28;20052;-79
2021/12/23 06:32:52;;;;;;;68.10;29.23;;;-0.60;99.90;;;-2.42;100.00;100683.72;4853729;28;20545;-78
2021/12/23 06:35:27;;;;;;;71.93;30.10;;;-0.60;99.90;;;-2.45;100.00;100675.97;4898743;28;20023;-79
2021/12/23 06:37:59;;;;;;;68.40;27.97;;;-0.60;99.90;;;-2.41;100.00;100674.28;4873089;28;20027;-79
2021/12/23 06:40:25;;;;;;;69.43;28.40;;;-0.50;99.90;;;-2.39;100.00;100675.16;4873407;28;20512;-79
2021/12/23 06:42:51;;;;;;;79.97;29.48;;;-0.90;99.90;;;-2.33;100.00;100672.63;4894090;28;20051;-79
2021/12/23 06:45:17;;;;;;;70.25;28.80;;;-0.50;99.90;;;-2.28;100.00;100681.25;4894807;28;20040;-80
2021/12/23 06:47:44;;;;;;;73.13;28.50;;;-0.50;99.90;;;-2.27;100.00;100681.25;4886599;28;20066;-79
2021/12/23 06:50:17;;;;;;;68.50;28.60;;;-0.40;99.90;;;-2.26;100.00;100679.53;4875650;28;20074;-79
2021/12/23 06:52:44;;;;;;;70.18;28.58;;;-0.40;99.90;;;-2.23;100.00;100678.69;4911717;28;20023;-79
2021/12/23 06:55:12;;;;;;;70.00;28.35;;;-0.40;99.90;;;-2.21;100.00;100669.22;4855640;28;20038;-79
2021/12/23 06:57:46;;;;;;;77.07;28.13;;;-0.40;99.90;;;-2.20;100.00;100665.78;4935521;28;20131;-79
2021/12/23 07:00:18;;;;;;;76.47;28.98;;;-0.40;99.90;;;-2.19;100.00;100659.78;4888718;28;20042;-78
2021/12/23 07:02:49;;;;;;;74.63;27.48;;;-0.40;99.90;;;-2.18;100.00;100653.75;4880570;28;20383;-79
2021/12/23 07:05:16;;;;;;;69.88;28.70;;;-0.40;99.90;;;-2.20;100.00;100645.16;4883799;28;20526;-79
2021/12/23 07:10:37;;;;;;;61.80;26.80;;;-0.40;99.90;;;-2.17;100.00;100627.13;4878454;28;20081;-78
2021/12/23 07:13:04;;;;;;;69.15;28.48;;;-0.40;99.90;;;-2.18;100.00;100620.22;4900659;28;20102;-79
2021/12/23 07:15:40;;;;;;;65.75;27.73;;;-0.30;99.90;;;-2.17;100.00;100616.78;4893802;28;20682;-79
2021/12/23 07:18:06;;;;;;;69.97;28.70;;;-0.30;99.90;;;-2.19;100.00;100608.19;4877026;28;20039;-79
2021/12/23 07:20:32;;;;;;;71.15;27.63;;;-0.40;99.90;;;-2.20;100.00;100612.50;4892411;28;20027;-78
2021/12/23 07:23:04;;;;;;;70.22;26.52;;;-0.30;99.90;;;-2.21;100.00;100602.16;4894761;28;20029;-79
2021/12/23 07:25:30;;;;;;;67.65;27.25;;;-0.40;99.90;;;-2.23;100.00;100606.44;4906563;28;20066;-79
2021/12/23 07:27:56;;;;;;;64.28;27.73;;;-0.40;99.90;;;-2.24;100.00;100602.16;4900916;28;20156;-78
2021/12/23 07:30:23;;;;;;;63.53;26.23;;;-0.40;99.90;;;-2.27;100.00;100590.09;4896027;28;20031;-79
2021/12/23 07:33:00;;;;;;;59.70;26.30;;;-0.40;99.90;;;-2.23;100.00;100593.56;4901249;28;20030;-79
2021/12/23 07:35:26;;;;;;;66.82;26.95;;;-0.40;99.90;;;-2.21;100.00;100589.25;4906427;28;20034;-79
2021/12/23 07:38:02;;;;;;;64.68;26.15;;;-0.40;99.90;;;-2.25;100.00;100582.38;4870886;28;20038;-79
2021/12/23 07:40:29;;;;;;;65.65;25.38;;;-0.40;99.90;;;-2.23;100.00;100573.78;4870328;28;20027;-78
2021/12/23 07:42:58;;;;;;;63.65;24.95;;;-0.30;99.90;;;-2.21;100.00;100577.22;4899319;28;20527;-78
2021/12/23 07:45:49;;;;;;;57.58;25.73;;;-0.30;99.90;;;-2.17;100.00;100578.97;4872568;28;20118;-77
2021/12/23 07:48:15;;;;;;;61.85;26.88;;;-0.30;99.90;;;-2.12;100.00;100577.25;4895702;28;20054;-79
2021/12/23 07:50:42;;;;;;;61.92;27.40;;;-0.30;99.90;;;-2.06;100.00;100587.59;4909538;28;20400;-79
2021/12/23 07:53:15;;;;;;;61.47;26.60;;;-0.30;99.90;;;-1.99;100.00;100583.28;4883350;28;20373;-79
2021/12/23 07:55:42;;;;;;;59.75;25.42;;;-0.30;99.90;;;-1.99;100.00;100588.47;4902605;28;20028;-80
2021/12/23 07:58:09;;;;;;;62.40;26.55;;;-0.20;99.90;;;-1.97;100.00;100591.06;4872919;28;20039;-80
2021/12/23 08:00:41;;;;;;;57.88;24.67;;;-0.20;99.90;;;-1.94;100.00;100591.06;4852310;28;20110;-80
2021/12/23 08:03:07;;;;;;;63.95;25.60;;;-0.20;99.90;;;-1.90;100.00;100582.44;4851544;28;21545;-80
2021/12/23 08:05:36;;;;;;;61.42;25.15;;;-0.10;99.90;;;-1.86;100.00;100586.75;4884899;23;20034;-79
2021/12/23 08:08:06;;;;;;;55.53;24.90;;;-0.10;99.90;;;-1.82;100.00;100585.91;4923918;28;20442;-77
2021/12/23 08:10:34;;;;;;;56.25;23.77;;;-0.10;99.90;;;-1.90;100.00;100567.84;4907885;28;20106;-80
2021/12/23 08:13:01;;;;;;;54.17;23.80;;;-0.10;99.90;;;-1.88;100.00;100560.97;4930634;28;20069;-79
2021/12/23 08:15:28;;;;;;;55.92;23.45;;;0.00;99.90;;;-1.84;100.00;100556.66;4914369;28;20014;-80
2021/12/23 08:17:54;;;;;;;54.80;24.60;;;0.00;99.90;;;-1.81;100.00;100560.97;4922349;28;20121;-80
2021/12/23 08:20:29;;;;;;;60.67;23.85;;;0.00;99.90;;;-1.79;100.00;100548.91;4893519;28;21227;-80
2021/12/23 08:22:55;;;;;;;51.25;23.38;;;0.00;99.90;;;-1.72;100.00;100550.66;4887003;28;20372;-80
2021/12/23 08:25:27;;;;;;;53.50;24.10;;;0.10;99.90;;;-1.66;100.00;100545.50;4911922;28;20035;-81
2021/12/23 08:27:56;;;;;;;53.03;24.20;;;0.10;99.90;;;-1.64;100.00;100536.06;4869712;28;21602;-81
2021/12/23 08:30:23;;;;;;;48.70;22.60;;;0.10;99.90;;;-1.67;100.00;100521.41;4866016;28;20045;-80
2021/12/23 08:32:50;;;;;;;54.28;23.60;;;0.10;99.90;;;-1.66;100.00;100517.13;4908951;28;20109;-79
2021/12/23 08:35:20;;;;;;;50.35;23.55;;;0.10;99.90;;;-1.63;100.00;100522.25;4887404;28;20029;-80
2021/12/23 08:37:49;;;;;;;49.10;22.15;;;0.20;99.90;;;-1.57;100.00;100524.00;4918398;28;20085;-80
2021/12/23 08:40:24;;;;;;;48.47;21.98;;;0.20;99.90;;;-1.53;100.00;100516.25;4921209;28;20138;-81
2021/12/23 08:42:52;;;;;;;53.00;23.27;;;0.20;99.90;;;-1.53;100.00;100510.22;4890808;28;20117;-80
2021/12/23 08:45:19;;;;;;;47.58;21.70;;;0.30;99.90;;;-1.45;100.00;100513.63;4899636;23;20041;-81
2021/12/23 08:47:54;;;;;;;53.20;22.42;;;0.30;99.90;;;-1.42;100.00;100513.66;4950247;28;20041;-81
2021/12/23 08:50:22;;;;;;;47.15;22.05;;;0.30;99.90;;;-1.43;100.00;100491.25;4959396;28;20120;-79
2021/12/23 08:52:48;;;;;;;47.10;20.35;;;0.30;99.90;;;-1.39;100.00;100508.47;4917666;28;20030;-79
2021/12/23 08:55:21;;;;;;;47.10;21.30;;;0.30;99.90;;;-1.37;100.00;100511.91;4920277;28;20104;-79
2021/12/23 08:57:47;;;;;;;53.20;22.65;;;0.40;99.90;;;-1.33;100.00;100512.78;4949562;28;20419;-80
2021/12/23 09:00:17;;;;;;;48.28;23.88;;;0.40;99.90;;;-1.37;100.00;100503.31;4965033;28;20049;-81
2021/12/23 09:02:51;;;;;;;44.95;21.63;;;0.40;99.90;;;-1.34;100.00;100490.38;5024170;28;20132;-83
2021/12/23 09:05:19;;;;;;;45.67;21.48;;;0.40;99.90;;;-1.30;100.00;100485.19;4970251;23;20021;-82
2021/12/23 09:08:10;;;;;;;55.30;22.58;;;0.50;99.90;;;-1.24;100.00;100485.19;4970812;28;20482;-82
2021/12/23 09:10:37;;;;;;;48.30;22.55;;;0.50;99.90;;;-1.09;100.00;100488.63;4953098;28;20049;-82
2021/12/23 09:13:04;;;;;;;46.95;21.65;;;0.60;99.90;;;-1.05;100.00;100485.16;4960834;28;20028;-80
2021/12/23 09:15:30;;;;;;;45.45;20.88;;;0.60;99.90;;;-1.03;100.00;100486.03;4959737;28;20143;-82
2021/12/23 09:18:05;;;;;;;47.65;23.08;;;0.70;99.90;;;-0.93;100.00;100472.22;4930128;28;20028;-82
2021/12/23 09:20:34;;;;;;;44.97;21.52;;;0.70;99.90;;;-0.97;100.00;100465.31;4971976;28;20509;-80
2021/12/23 09:23:09;;;;;;;41.15;20.58;;;0.70;99.90;;;-1.01;100.00;100462.75;4979822;28;20148;-79
2021/12/23 09:25:39;;;;;;;47.60;20.42;;;0.70;99.90;;;-0.97;100.00;100455.00;4957376;23;20052;-80
2021/12/23 09:28:26;;;;;;;44.22;19.95;;;0.70;99.90;;;-0.96;100.00;100454.09;4935474;28;20036;-80
2021/12/23 09:33:54;;;;;;;45.58;20.27;;;0.80;99.90;;;-0.77;100.00;100441.97;4982501;28;20043;-81
2021/12/23 09:36:25;;;;;;;45.33;19.88;;;0.80;99.90;;;-0.68;100.00;100438.47;4939306;28;20025;-80
2021/12/23 09:38:55;;;;;;;44.47;19.85;;;0.90;99.90;;;-0.57;100.00;100441.00;4932569;28;20030;-83
2021/12/23 09:41:25;;;;;;;43.28;19.77;;;1.00;99.90;;;-0.55;100.00;100431.53;4907543;28;20485;-78
2021/12/23 09:43:56;;;;;;;42.05;20.35;;;1.00;99.90;;;-0.50;100.00;100415.09;4953733;28;20530;-77
2021/12/23 09:46:31;;;;;;;43.45;20.63;;;1.10;99.90;;;-0.47;100.00;100409.06;4963227;22;20053;-79
2021/12/23 09:49:08;;;;;;;41.97;19.77;;;1.10;99.90;;;-0.48;100.00;100404.75;4939722;28;20458;-78
2021/12/23 09:51:40;;;;;;;39.50;19.63;;;1.20;99.90;;;-0.37;100.00;100409.84;4936255;28;20046;-78
2021/12/23 09:54:09;;;;;;;37.70;18.77;;;1.20;99.90;;;-0.37;99.64;100395.16;4958643;28;20100;-78
2021/12/23 09:56:41;;;;;;;41.53;19.40;;;1.20;99.90;;;-0.33;99.70;100383.94;4920102;28;20030;-77
2021/12/23 09:59:10;;;;;;;41.65;19.45;;;1.30;99.90;;;-0.32;98.98;100380.50;4927756;28;20030;-79
2021/12/23 10:01:37;;;;;;;39.72;18.77;;;1.30;99.90;;;-0.40;99.08;100371.91;4922140;28;20163;-80
2021/12/23 10:04:12;;;;;;;42.30;19.02;;;1.30;99.90;;;-0.48;99.05;100365.94;4918870;28;20768;-79
2021/12/23 10:06:41;;;;;;;44.38;20.20;;;1.20;99.90;;;-0.51;99.33;100351.31;4918093;28;20182;-80
2021/12/23 10:09:12;;;;;;;40.10;18.55;;;1.20;99.90;;;-0.53;99.26;100331.50;4915054;28;20061;-79
2021/12/23 10:12:10;;;;;;;36.47;18.00;;;1.20;99.90;;;-0.46;99.01;100328.84;4940051;28;20040;-79
2021/12/23 10:37:22;;;;;;;37.58;17.60;;;1.30;99.90;;;-0.34;97.94;100276.16;4906288;28;20027;-81
2021/12/23 10:40:12;;;;;;;38.80;18.50;;;1.30;99.90;;;-0.35;97.83;100268.41;4930460;28;20025;-79
2021/12/23 10:42:48;;;;;;;40.47;17.80;;;1.30;99.90;;;-0.29;97.85;100274.38;4912905;28;20037;-78